createdAt,value
2023-10-02T00:01:19.716Z,8.63
2023-10-02T00:06:25.141Z,9.10
2023-10-02T00:11:43.950Z,9.05
2023-10-02T00:17:02.714Z,8.52
2023-10-02T00:22:11.957Z,7.93
2023-10-02T00:27:15.619Z,8.48
2023-10-02T00:32:22.180Z,8.73
2023-10-02T00:37:46.639Z,8.75
2023-10-02T00:42:51.664Z,8.20
2023-10-02T00:47:55.229Z,9.05
2023-10-02T00:53:05.671Z,8.05
2023-10-02T00:58:10.755Z,8.27
2023-10-02T01:03:18.751Z,8.18
2023-10-02T01:08:27.632Z,8.73
2023-10-02T01:13:34.705Z,8.25
2023-10-02T01:18:39.288Z,8.40
2023-10-02T01:24:09.311Z,8.48
2023-10-02T01:29:16.077Z,8.70
2023-10-02T01:34:42.118Z,7.93
2023-10-02T01:39:45.655Z,8.43
2023-10-02T01:44:57.133Z,8.10
2023-10-02T01:50:02.363Z,8.60
2023-10-02T01:55:06.715Z,8.77
2023-10-02T02:00:15.933Z,8.43
2023-10-02T02:05:19.621Z,8.50
2023-10-02T02:10:24.307Z,8.93
2023-10-02T02:15:27.830Z,10.38
2023-10-02T02:20:46.206Z,9.07
2023-10-02T02:25:49.585Z,8.05
2023-10-02T02:30:53.032Z,8.45
2023-10-02T02:36:07.769Z,8.68
2023-10-02T02:41:11.188Z,8.70
2023-10-02T02:46:19.215Z,8.82
2023-10-02T02:51:25.669Z,7.70
2023-10-02T02:56:30.152Z,8.70
2023-10-02T03:01:34.429Z,7.88
2023-10-02T03:06:37.846Z,9.05
2023-10-02T03:11:42.190Z,8.00
2023-10-02T03:16:48.731Z,8.57
2023-10-02T03:21:56.866Z,8.45
2023-10-02T03:27:02.392Z,8.75
2023-10-02T03:32:07.414Z,8.70
2023-10-02T03:37:15.623Z,8.82
2023-10-02T03:42:24.482Z,8.73
2023-10-02T03:47:35.934Z,8.23
2023-10-02T03:52:43.213Z,8.95
2023-10-02T03:57:51.592Z,8.32
2023-10-02T04:02:59.087Z,8.93
2023-10-02T04:08:33.123Z,8.95
2023-10-02T04:13:41.456Z,7.68
2023-10-02T04:18:49.505Z,8.35
2023-10-02T04:23:58.889Z,9.52
2023-10-02T04:29:28.805Z,8.43
2023-10-02T04:34:33.595Z,8.85
2023-10-02T04:39:36.994Z,9.50
2023-10-02T04:44:46.556Z,8.85
2023-10-02T04:50:07.797Z,9.00
2023-10-02T04:55:11.621Z,10.35
2023-10-02T05:00:29.081Z,9.43
2023-10-02T05:05:36.790Z,8.10
2023-10-02T05:10:40.368Z,9.00
2023-10-02T05:16:03.783Z,8.68
2023-10-02T05:21:09.488Z,9.02
2023-10-02T05:26:31.841Z,13.23
2023-10-02T05:31:38.895Z,9.90
2023-10-02T05:37:00.987Z,9.95
2023-10-02T05:42:16.144Z,10.85
2023-10-02T05:47:20.040Z,10.52
2023-10-02T05:52:26.205Z,10.57
2023-10-02T05:57:33.860Z,10.65
2023-10-02T06:02:37.909Z,11.25
2023-10-02T06:07:49.720Z,10.93
2023-10-02T06:13:05.639Z,10.38
2023-10-02T06:18:10.077Z,10.43
2023-10-02T06:23:22.404Z,11.32
2023-10-02T06:28:29.186Z,11.43
2023-10-02T06:33:40.636Z,10.73
2023-10-02T06:38:45.512Z,10.35
2023-10-02T06:43:50.759Z,10.07
2023-10-02T06:48:56.588Z,9.98
2023-10-02T06:54:09.184Z,10.05
2023-10-02T06:59:12.713Z,10.35
2023-10-02T07:04:21.481Z,10.50
2023-10-02T07:09:26.749Z,10.38
2023-10-02T07:14:37.401Z,12.80
2023-10-02T07:19:41.422Z,9.55
2023-10-02T07:24:50.472Z,9.05
2023-10-02T07:30:01.538Z,8.65
2023-10-02T07:35:23.837Z,7.97
2023-10-02T07:40:48.743Z,8.20
2023-10-02T07:46:04.862Z,8.27
2023-10-02T07:51:08.769Z,7.90
2023-10-02T07:56:16.260Z,7.63
2023-10-02T08:01:23.825Z,8.23
2023-10-02T08:06:33.144Z,7.65
2023-10-02T08:11:37.454Z,7.13
2023-10-02T08:17:01.133Z,7.10
2023-10-02T08:22:07.457Z,6.80
2023-10-02T08:27:10.770Z,6.63
2023-10-02T08:37:17.992Z,6.28
2023-10-02T09:38:52.141Z,5.20
2023-10-02T09:50:13.894Z,5.43
2023-10-02T09:55:27.928Z,6.20
2023-10-02T10:39:53.127Z,4.90
2023-10-02T10:54:30.405Z,5.10
2023-10-02T10:59:48.420Z,5.32
2023-10-02T11:09:43.464Z,5.65
2023-10-02T11:14:46.766Z,11.23
2023-10-02T11:25:02.162Z,5.82
2023-10-02T11:30:09.049Z,5.30
2023-10-02T11:35:12.611Z,6.00
2023-10-02T11:40:16.766Z,5.95
2023-10-02T11:45:20.277Z,5.57
2023-10-02T11:55:28.566Z,5.50
2023-10-02T12:00:31.961Z,6.13
2023-10-02T12:10:43.180Z,6.18
2023-10-02T12:15:48.219Z,5.60
2023-10-02T12:20:51.532Z,5.72
2023-10-02T12:30:58.309Z,5.78
2023-10-02T12:36:01.593Z,6.30
2023-10-02T12:46:17.227Z,6.47
2023-10-02T12:51:24.847Z,5.82
2023-10-02T12:56:28.267Z,5.63
2023-10-02T13:01:31.897Z,6.07
2023-10-02T13:11:42.145Z,6.53
2023-10-02T13:16:45.682Z,6.60
2023-10-02T13:21:54.520Z,6.22
2023-10-02T13:26:57.880Z,6.85
2023-10-02T13:32:03.228Z,6.00
2023-10-02T13:37:07.603Z,5.95
2023-10-02T13:42:10.878Z,5.72
2023-10-02T13:47:26.803Z,6.32
2023-10-02T13:52:40.793Z,5.85
2023-10-02T13:57:44.984Z,6.43
2023-10-02T14:02:53.225Z,5.70
2023-10-02T14:07:57.057Z,5.95
2023-10-02T14:13:03.494Z,5.72
2023-10-02T14:18:07.160Z,6.22
2023-10-02T14:23:10.827Z,6.10
2023-10-02T14:28:14.328Z,5.55
2023-10-02T14:38:23.465Z,6.23
2023-10-02T14:43:29.071Z,5.43
2023-10-02T14:48:46.251Z,5.65
2023-10-02T14:53:51.173Z,6.07
2023-10-02T15:03:57.957Z,6.17
2023-10-02T15:14:10.365Z,5.55
2023-10-02T15:19:15.320Z,6.00
2023-10-02T15:24:20.002Z,6.20
2023-10-02T15:29:23.722Z,6.72
2023-10-02T15:39:30.246Z,6.40
2023-10-02T15:44:34.894Z,6.28
2023-10-02T15:49:39.982Z,6.47
2023-10-02T15:54:45.454Z,6.63
2023-10-02T15:59:48.964Z,7.65
2023-10-02T16:04:54.262Z,7.38
2023-10-02T16:09:57.676Z,6.65
2023-10-02T16:15:01.306Z,6.82
2023-10-02T16:20:05.254Z,6.40
2023-10-02T16:25:10.646Z,7.50
2023-10-02T16:30:14.700Z,8.07
2023-10-02T16:35:19.677Z,7.60
2023-10-02T16:40:25.094Z,8.10
2023-10-02T16:45:29.080Z,7.57
2023-10-02T16:50:32.864Z,8.55
2023-10-02T16:55:36.592Z,8.48
2023-10-02T17:00:43.135Z,8.30
2023-10-02T17:05:47.536Z,8.95
2023-10-02T17:10:50.957Z,8.60
2023-10-02T17:15:54.657Z,9.65
2023-10-02T17:20:58.066Z,9.40
2023-10-02T17:26:02.262Z,9.52
2023-10-02T17:36:10.573Z,10.80
2023-10-02T17:41:14.029Z,10.40
2023-10-02T17:46:17.411Z,10.60
2023-10-02T17:51:20.977Z,10.03
2023-10-02T17:56:24.321Z,10.90
2023-10-02T18:01:27.774Z,10.90
2023-10-02T18:06:31.330Z,11.40
2023-10-02T18:11:34.759Z,11.83
2023-10-02T18:16:39.003Z,10.97
2023-10-02T18:21:42.728Z,10.73
2023-10-02T18:26:46.134Z,10.27
2023-10-02T18:31:50.255Z,10.73
2023-10-02T18:36:53.648Z,10.02
2023-10-02T18:41:57.181Z,10.37
2023-10-02T18:47:01.812Z,10.33
2023-10-02T18:52:05.456Z,9.38
2023-10-02T18:57:10.467Z,10.63
2023-10-02T19:02:13.913Z,10.10
2023-10-02T19:07:17.366Z,10.77
2023-10-02T19:12:21.126Z,10.05
2023-10-02T19:17:26.042Z,9.70
2023-10-02T19:22:29.495Z,8.95
2023-10-02T19:27:32.852Z,9.27
2023-10-02T19:32:36.274Z,9.98
2023-10-02T19:37:40.139Z,9.07
2023-10-02T19:42:43.628Z,9.52
2023-10-02T19:47:46.958Z,10.20
2023-10-02T19:52:52.700Z,11.07
2023-10-02T19:57:56.274Z,10.05
2023-10-02T20:02:59.927Z,10.73
2023-10-02T20:08:03.821Z,9.70
2023-10-02T20:13:08.434Z,10.40
2023-10-02T20:18:12.097Z,10.20
2023-10-02T20:23:17.397Z,10.50
2023-10-02T20:28:23.871Z,10.02
2023-10-02T20:33:27.239Z,9.38
2023-10-02T20:38:30.657Z,9.98
2023-10-02T20:43:34.330Z,9.55
2023-10-02T20:48:40.360Z,9.93
2023-10-02T20:53:43.868Z,9.40
2023-10-02T20:58:47.241Z,11.07
2023-10-02T21:03:51.017Z,11.38
2023-10-02T21:08:54.966Z,10.93
2023-10-02T21:13:58.240Z,10.18
2023-10-02T21:19:01.710Z,11.57
2023-10-02T21:24:05.356Z,9.97
2023-10-02T21:29:08.923Z,9.85
2023-10-02T21:34:12.696Z,10.80
2023-10-02T21:39:16.653Z,11.02
2023-10-02T21:44:19.946Z,10.52
2023-10-02T21:49:24.003Z,11.20
2023-10-02T21:54:28.581Z,12.00
2023-10-02T22:04:35.129Z,12.20
2023-10-02T22:09:39.077Z,11.97
2023-10-02T22:14:46.274Z,11.35
2023-10-02T22:19:51.306Z,11.02
2023-10-02T22:24:55.613Z,11.00
2023-10-02T22:29:59.740Z,12.27
2023-10-02T22:35:06.985Z,13.23
2023-10-02T22:40:19.228Z,12.57
2023-10-02T22:45:23.967Z,13.05
2023-10-02T22:50:27.746Z,12.13
2023-10-02T22:55:31.835Z,19.00
2023-10-02T23:00:37.814Z,12.30
2023-10-02T23:05:42.358Z,11.95
2023-10-02T23:10:46.768Z,12.68
2023-10-02T23:15:50.175Z,11.25
2023-10-02T23:20:55.244Z,10.35
2023-10-02T23:26:00.668Z,10.45
2023-10-02T23:31:04.701Z,13.73
2023-10-02T23:36:12.182Z,14.82
2023-10-02T23:41:16.756Z,11.27
2023-10-02T23:46:20.312Z,12.30
2023-10-02T23:51:32.520Z,12.05
2023-10-02T23:56:36.429Z,12.20
